Huvudsida
METAR-TAF:

METAR-TAF

Flygplatser :

Oljeplattform

Statfjord A, Norge

latitud: 61-15N, longitud: 1-51E, höjd: 10 m

Aktuellt väderrapport

Denna rapport gjordes för 43 minuter sedan, klockan 09:50 UTC
Vind 32 kt från syd/sydost
Temperatur 8°C
Fuktighet 76%
Tryck 1012 hPa

METAR: ENSF 170950Z AUTO 16032KT //// BKN015/// BKN054/// 08/04 Q1012 W///S5

Tid: 11:33 (10:33 UTC)


TAF: saknas

Aktuella väderrapporter och prognoser från 4000 flygplatser (METAR- och TAF-rapporter).

De tillgängliga stationerna syns som gula och röda prickar på kartan.

För musen över prickarna för att se namnen på stationerna.

Klicka sedan för att få väderrapporter och prognoser.

För att ändra kartan: Klicka på de gröna knapparna med ett svart kors på för att zooma in; den gröna knappen med ett streck på för att zooma ut; eller på de gröna pilarna för angränsande kartor.


METAR-TAF: